Observation data for Memphis on 02/13/2018      Previous  Date  Next       Current Mesonet Observations  Soil Data  Daily Summary Page  Observations in Plain Language
KMES 130600Z 05000KT M02/M10 A3033 RMK A01 T10241097  RH  058%=      5-min Rain = 0
KMES 130605Z 36001KT M02/M09 A3033 RMK A01 T10231093  RH  059%=      5-min Rain = 0
KMES 130610Z 00002KT M03/M10 A3034 RMK A01 T10271101  RH  058%=      5-min Rain = 0
KMES 130615Z 01001KT M03/M10 A3034 RMK A01 T10291100  RH  059%=      5-min Rain = 0
KMES 130620Z 04002KT M03/M10 A3034 RMK A01 T10311104  RH  058%=      5-min Rain = 0
KMES 130625Z 06002KT M04/M11 A3034 RMK A01 T10361111  RH  057%=      5-min Rain = 0
KMES 130630Z 10003KT M04/M11 A3034 RMK A01 T10381106  RH  060%=      5-min Rain = 0
KMES 130635Z 11002KT M04/M10 A3033 RMK A01 T10361097  RH  063%=      5-min Rain = 0
KMES 130640Z 09002KT M03/M10 A3033 RMK A01 T10341095  RH  064%=      5-min Rain = 0
KMES 130645Z 11002KT M03/M09 A3033 RMK A01 T10331092  RH  064%=      5-min Rain = 0
KMES 130650Z 13003KT M03/M09 A3033 RMK A01 T10311088  RH  066%=      5-min Rain = 0
KMES 130655Z 12002KT M03/M09 A3033 RMK A01 T10321093  RH  064%=      5-min Rain = 0
KMES 130700Z 10000KT M04/M10 A3033 RMK A01 T10351097  RH  063%=      5-min Rain = 0
KMES 130705Z 12000KT M04/M10 A3033 RMK A01 T10381098  RH  064%=      5-min Rain = 0
KMES 130710Z 32001KT M04/M10 A3033 RMK A01 T10391100  RH  063%=      5-min Rain = 0
KMES 130715Z 33002KT M04/M10 A3033 RMK A01 T10391095  RH  066%=      5-min Rain = 0
KMES 130720Z 33001KT M04/M09 A3033 RMK A01 T10361090  RH  067%=      5-min Rain = 0
KMES 130725Z 01001KT M04/M09 A3033 RMK A01 T10351091  RH  066%=      5-min Rain = 0
KMES 130730Z 02003KT M04/M11 A3033 RMK A01 T10421110  RH  060%=      5-min Rain = 0
KMES 130735Z 04002KT M05/M11 A3033 RMK A01 T10481112  RH  062%=      5-min Rain = 0
KMES 130740Z 04002KT M05/M11 A3032 RMK A01 T10501108  RH  064%=      5-min Rain = 0
KMES 130745Z 02002KT M05/M10 A3033 RMK A01 T10491104  RH  066%=      5-min Rain = 0
KMES 130750Z 04002KT M05/M11 A3032 RMK A01 T10491105  RH  066%=      5-min Rain = 0
KMES 130755Z 04003KT M05/M11 A3033 RMK A01 T10521109  RH  065%=      5-min Rain = 0
KMES 130800Z 02003KT M05/M11 A3033 RMK A01 T10531106  RH  067%=      5-min Rain = 0
KMES 130805Z 04002KT M05/M10 A3033 RMK A01 T10531103  RH  068%=      5-min Rain = 0
KMES 130810Z 05002KT M05/M10 A3033 RMK A01 T10531104  RH  068%=      5-min Rain = 0
KMES 130815Z 03002KT M05/M10 A3033 RMK A01 T10541104  RH  069%=      5-min Rain = 0
KMES 130820Z 36001KT M05/M10 A3032 RMK A01 T10501096  RH  071%=      5-min Rain = 0
KMES 130825Z 34002KT M05/M09 A3033 RMK A01 T10471094  RH  071%=      5-min Rain = 0
KMES 130830Z 34003KT M05/M09 A3033 RMK A01 T10461092  RH  071%=      5-min Rain = 0
KMES 130835Z 33003KT M05/M09 A3033 RMK A01 T10461092  RH  071%=      5-min Rain = 0
KMES 130840Z 32003KT M05/M10 A3032 RMK A01 T10481095  RH  071%=      5-min Rain = 0
KMES 130845Z 33004KT M05/M09 A3032 RMK A01 T10481091  RH  073%=      5-min Rain = 0
KMES 130850Z 32002KT M05/M09 A3032 RMK A01 T10481093  RH  072%=      5-min Rain = 0
KMES 130855Z 32001KT M05/M09 A3032 RMK A01 T10501094  RH  072%=      5-min Rain = 0
KMES 130900Z 34001KT M05/M10 A3032 RMK A01 T10521097  RH  071%=      5-min Rain = 0
KMES 130905Z 34002KT M06/M10 A3032 RMK A01 T10571104  RH  070%=      5-min Rain = 0
KMES 130910Z 34000KT M06/M11 A3032 RMK A01 T10601110  RH  069%=      5-min Rain = 0
KMES 130915Z 34003KT M07/M13 A3032 RMK A01 T10681125  RH  065%=      5-min Rain = 0
KMES 130920Z 36004KT M07/M13 A3032 RMK A01 T10741128  RH  066%=      5-min Rain = 0
KMES 130925Z 01003KT M07/M12 A3032 RMK A01 T10721117  RH  071%=      5-min Rain = 0
KMES 130930Z 01003KT M07/M11 A3032 RMK A01 T10661111  RH  072%=      5-min Rain = 0
KMES 130935Z 01003KT M07/M11 A3032 RMK A01 T10651109  RH  072%=      5-min Rain = 0
KMES 130940Z 01002KT M06/M11 A3032 RMK A01 T10641106  RH  073%=      5-min Rain = 0
KMES 130945Z 01002KT M07/M11 A3032 RMK A01 T10651109  RH  072%=      5-min Rain = 0
KMES 130950Z 01001KT M06/M11 A3032 RMK A01 T10641107  RH  073%=      5-min Rain = 0
KMES 130955Z 01002KT M06/M10 A3032 RMK A01 T10621103  RH  074%=      5-min Rain = 0
KMES 131000Z 01002KT M06/M10 A3032 RMK A01 T10611101  RH  074%=      5-min Rain = 0
KMES 131005Z 01003KT M06/M11 A3032 RMK A01 T10631106  RH  072%=      5-min Rain = 0
KMES 131010Z 01002KT M07/M11 A3032 RMK A01 T10671108  RH  073%=      5-min Rain = 0
KMES 131015Z 01003KT M07/M11 A3031 RMK A01 T10671108  RH  073%=      5-min Rain = 0
KMES 131020Z 01004KT M07/M11 A3031 RMK A01 T10691113  RH  072%=      5-min Rain = 0
KMES 131025Z 00003KT M07/M11 A3031 RMK A01 T10701110  RH  074%=      5-min Rain = 0
KMES 131030Z 35003KT M07/M10 A3031 RMK A01 T10661103  RH  076%=      5-min Rain = 0
KMES 131035Z 00004KT M07/M11 A3032 RMK A01 T10681109  RH  073%=      5-min Rain = 0
KMES 131040Z 00003KT M07/M11 A3032 RMK A01 T10701109  RH  075%=      5-min Rain = 0
KMES 131045Z 00003KT M07/M10 A3032 RMK A01 T10671104  RH  076%=      5-min Rain = 0
KMES 131050Z 35003KT M07/M10 A3033 RMK A01 T10651101  RH  076%=      5-min Rain = 0
KMES 131055Z 32003KT M06/M10 A3033 RMK A01 T10631098  RH  077%=      5-min Rain = 0
KMES 131100Z 33002KT M06/M10 A3033 RMK A01 T10621097  RH  078%=      5-min Rain = 0
KMES 131105Z 32003KT M06/M10 A3033 RMK A01 T10631096  RH  078%=      5-min Rain = 0
KMES 131110Z 31003KT M06/M09 A3034 RMK A01 T10621094  RH  079%=      5-min Rain = 0
KMES 131115Z 34003KT M06/M10 A3034 RMK A01 T10631096  RH  078%=      5-min Rain = 0
KMES 131120Z 33003KT M07/M11 A3034 RMK A01 T10691106  RH  076%=      5-min Rain = 0
KMES 131125Z 33003KT M07/M11 A3034 RMK A01 T10741111  RH  075%=      5-min Rain = 0
KMES 131130Z 32003KT M07/M11 A3034 RMK A01 T10731106  RH  078%=      5-min Rain = 0
KMES 131135Z 33003KT M07/M10 A3034 RMK A01 T10701103  RH  079%=      5-min Rain = 0
KMES 131140Z 33002KT M07/M10 A3034 RMK A01 T10701101  RH  080%=      5-min Rain = 0
KMES 131145Z 33003KT M07/M09 A3035 RMK A01 T10661094  RH  082%=      5-min Rain = 0
KMES 131150Z 33003KT M07/M10 A3034 RMK A01 T10661097  RH  080%=      5-min Rain = 0
KMES 131155Z 33003KT M07/M10 A3034 RMK A01 T10681097  RH  081%=      5-min Rain = 0
KMES 131200Z 34003KT M07/M10 A3034 RMK A01 T10661095  RH  081%=      5-min Rain = 0
KMES 131205Z 35004KT M07/M11 A3034 RMK A01 T10711105  RH  078%=      5-min Rain = 0
KMES 131210Z 02002KT M08/M11 A3034 RMK A01 T10751109  RH  078%=      5-min Rain = 0
KMES 131215Z 02002KT M08/M11 A3034 RMK A01 T10751108  RH  078%=      5-min Rain = 0
KMES 131220Z 02002KT M07/M11 A3034 RMK A01 T10721106  RH  078%=      5-min Rain = 0
KMES 131225Z 02003KT M07/M10 A3033 RMK A01 T10681102  RH  078%=      5-min Rain = 0
KMES 131230Z 02003KT M07/M10 A3033 RMK A01 T10651100  RH  077%=      5-min Rain = 0
KMES 131235Z 04002KT M06/M09 A3033 RMK A01 T10591094  RH  078%=      5-min Rain = 0
KMES 131240Z 03001KT M05/M09 A3033 RMK A01 T10531087  RH  078%=      5-min Rain = 0
KMES 131245Z 03001KT M05/M08 A3033 RMK A01 T10481081  RH  079%=      5-min Rain = 0
KMES 131250Z 04002KT M05/M08 A3033 RMK A01 T10451078  RH  079%=      5-min Rain = 0
KMES 131255Z 06003KT M04/M08 A3034 RMK A01 T10441077  RH  079%=      5-min Rain = 0
KMES 131300Z 06002KT M04/M08 A3034 RMK A01 T10441078  RH  078%=      5-min Rain = 0
KMES 131305Z 06002KT M05/M08 A3034 RMK A01 T10451079  RH  078%=      5-min Rain = 0
KMES 131310Z 07002KT M05/M08 A3034 RMK A01 T10461079  RH  079%=      5-min Rain = 0
KMES 131315Z 08000KT M04/M08 A3034 RMK A01 T10441077  RH  079%=      5-min Rain = 0
KMES 131320Z 10002KT M04/M08 A3034 RMK A01 T10441076  RH  079%=      5-min Rain = 0
KMES 131325Z 09000KT M04/M08 A3034 RMK A01 T10441075  RH  079%=      5-min Rain = 0
KMES 131330Z 08001KT M04/M08 A3035 RMK A01 T10441076  RH  079%=      5-min Rain = 0
KMES 131335Z 08001KT M05/M08 A3035 RMK A01 T10471081  RH  078%=      5-min Rain = 0
KMES 131340Z 06002KT M05/M08 A3035 RMK A01 T10481081  RH  079%=      5-min Rain = 0
KMES 131345Z 03002KT M05/M09 A3035 RMK A01 T10511089  RH  076%=      5-min Rain = 0
KMES 131350Z 01001KT M06/M09 A3035 RMK A01 T10561094  RH  075%=      5-min Rain = 0
KMES 131355Z 01001KT M05/M09 A3035 RMK A01 T10511085  RH  078%=      5-min Rain = 0
KMES 131400Z 00001KT M05/M08 A3035 RMK A01 T10481080  RH  079%=      5-min Rain = 0
KMES 131405Z 34001KT M05/M08 A3036 RMK A01 T10471079  RH  079%=      5-min Rain = 0
KMES 131410Z 31001KT M05/M08 A3036 RMK A01 T10451076  RH  080%=      5-min Rain = 0
KMES 131415Z 32000KT M04/M07 A3035 RMK A01 T10421073  RH  080%=      5-min Rain = 0
KMES 131420Z 32000KT M04/M07 A3036 RMK A01 T10391074  RH  078%=      5-min Rain = 0
KMES 131425Z 00000KT M04/M07 A3036 RMK A01 T10351073  RH  076%=      5-min Rain = 0
KMES 131430Z 00000KT M03/M07 A3036 RMK A01 T10301069  RH  076%=      5-min Rain = 0
KMES 131435Z 00000KT M03/M07 A3037 RMK A01 T10271068  RH  075%=      5-min Rain = 0
KMES 131440Z 21000KT M03/M07 A3037 RMK A01 T10271069  RH  074%=      5-min Rain = 0
KMES 131445Z 16001KT M03/M07 A3037 RMK A01 T10271069  RH  074%=      5-min Rain = 0
KMES 131450Z 15002KT M03/M07 A3037 RMK A01 T10261067  RH  075%=      5-min Rain = 0
KMES 131455Z 13001KT M02/M06 A3037 RMK A01 T10241064  RH  075%=      5-min Rain = 0
KMES 131500Z 12001KT M02/M06 A3037 RMK A01 T10201061  RH  075%=      5-min Rain = 0
KMES 131505Z 13001KT M02/M06 A3037 RMK A01 T10171058  RH  074%=      5-min Rain = 0
KMES 131510Z 14000KT M01/M06 A3037 RMK A01 T10141056  RH  074%=      5-min Rain = 0
KMES 131515Z 12002KT M01/M05 A3037 RMK A01 T10121054  RH  074%=      5-min Rain = 0
KMES 131520Z 12001KT M01/M05 A3037 RMK A01 T10111054  RH  074%=      5-min Rain = 0
KMES 131525Z 14002KT M01/M05 A3038 RMK A01 T10091052  RH  074%=      5-min Rain = 0
KMES 131530Z 14002KT M01/M05 A3037 RMK A01 T10061050  RH  073%=      5-min Rain = 0
KMES 131535Z 13002KT M01/M05 A3037 RMK A01 T10051049  RH  073%=      5-min Rain = 0
KMES 131540Z 16003KT M00/M05 A3037 RMK A01 T10031048  RH  072%=      5-min Rain = 0
KMES 131545Z 18003KT M00/M05 A3037 RMK A01 T10021047  RH  073%=      5-min Rain = 0
KMES 131550Z 16003KT 00/05 A3037 RMK A01 T00000-46  RH  072%=      5-min Rain = 0
KMES 131555Z 16004KT 00/M04 A3037 RMK A01 T00041044  RH  071%=      5-min Rain = 0
KMES 131600Z 17005KT 01/M04 A3037 RMK A01 T00051043  RH  071%=      5-min Rain = 0
KMES 131605Z 15005KT 01/M04 A3037 RMK A01 T00071043  RH  070%=      5-min Rain = 0
KMES 131610Z 17003KT 01/M04 A3038 RMK A01 T00101041  RH  069%=      5-min Rain = 0
KMES 131615Z 17005KT 02/M04 A3038 RMK A01 T00181036  RH  068%=      5-min Rain = 0
KMES 131620Z 20005KT 02/M04 A3038 RMK A01 T00201036  RH  067%=      5-min Rain = 0
KMES 131625Z 19004KT 02/M04 A3038 RMK A01 T00221036  RH  066%=      5-min Rain = 0
KMES 131630Z 25005KT 03/M04 A3038 RMK A01 T00271035  RH  065%=      5-min Rain = 0
KMES 131635Z 23004KT 03/M03 A3038 RMK A01 T00311032  RH  064%=      5-min Rain = 0
KMES 131640Z 23006KT 04/M03 A3038 RMK A01 T00371028  RH  063%=      5-min Rain = 0
KMES 131645Z 22006KT 04/M03 A3038 RMK A01 T00411027  RH  062%=      5-min Rain = 0
KMES 131650Z 22007KT 05/M03 A3038 RMK A01 T00451027  RH  060%=      5-min Rain = 0
KMES 131655Z 22007KT 04/M03 A3038 RMK A01 T00431027  RH  061%=      5-min Rain = 0
KMES 131700Z 21007KT 05/M03 A3038 RMK A01 T00451027  RH  060%=      5-min Rain = 0
KMES 131705Z 21008KT 04/M03 A3038 RMK A01 T00441025  RH  062%=      5-min Rain = 0
KMES 131710Z 20006KT 05/M02 A3038 RMK A01 T00491023  RH  060%=      5-min Rain = 0
KMES 131715Z 19006KT 05/M03 A3038 RMK A01 T00491027  RH  059%=      5-min Rain = 0
KMES 131720Z 20006KT 05/M03 A3037 RMK A01 T00481027  RH  059%=      5-min Rain = 0
KMES 131725Z 20008KT 05/M02 A3037 RMK A01 T00511023  RH  059%=      5-min Rain = 0
KMES 131730Z 21007KT 06/M02 A3037 RMK A01 T00551022  RH  058%=      5-min Rain = 0
KMES 131735Z 20008KT 06/M02 A3037 RMK A01 T00591018  RH  058%=      5-min Rain = 0
KMES 131740Z 21008KT 06/M02 A3036 RMK A01 T00641015  RH  058%=      5-min Rain = 0
KMES 131745Z 21009KT 07/M01 A3036 RMK A01 T00671011  RH  058%=      5-min Rain = 0
KMES 131750Z 20008G13KT 07/M01 A3036 RMK A01 T00731006  RH  058%=      5-min Rain = 0
KMES 131755Z 20007G12KT 08/M00 A3036 RMK A01 T00751003  RH  058%=      5-min Rain = 0
KMES 131800Z 15011KT 08/M01 A3035 RMK A01 T00761014  RH  054%=      5-min Rain = 0
KMES 131805Z 14009KT 08/M02 A3035 RMK A01 T00751017  RH  053%=      5-min Rain = 0
KMES 131810Z 14009KT 07/M01 A3034 RMK A01 T00731014  RH  055%=      5-min Rain = 0
KMES 131815Z 13008KT 08/M02 A3034 RMK A01 T00761015  RH  053%=      5-min Rain = 0
KMES 131820Z 14007KT 08/M02 A3034 RMK A01 T00781016  RH  052%=      5-min Rain = 0
KMES 131825Z 15008KT 08/M01 A3034 RMK A01 T00791010  RH  054%=      5-min Rain = 0
KMES 131830Z 16006KT 08/M01 A3034 RMK A01 T00811007  RH  054%=      5-min Rain = 0
KMES 131835Z 13009KT 08/M01 A3033 RMK A01 T00841010  RH  052%=      5-min Rain = 0
KMES 131840Z 14009KT 09/M01 A3033 RMK A01 T00851009  RH  052%=      5-min Rain = 0
KMES 131845Z 14010KT 09/M01 A3032 RMK A01 T00851010  RH  052%=      5-min Rain = 0
KMES 131850Z 14010KT 08/M01 A3032 RMK A01 T00841008  RH  053%=      5-min Rain = 0
KMES 131855Z 14010KT 09/M00 A3032 RMK A01 T00891004  RH  052%=      5-min Rain = 0
KMES 131900Z 15009KT 09/01 A3031 RMK A01 T00920005  RH  055%=      5-min Rain = 0
KMES 131905Z 16008KT 10/01 A3031 RMK A01 T00950012  RH  057%=      5-min Rain = 0
KMES 131910Z 17007KT 10/01 A3031 RMK A01 T00960010  RH  056%=      5-min Rain = 0
KMES 131915Z 17009G16KT 10/01 A303 RMK A01 T00970008  RH  055%=      5-min Rain = 0
KMES 131920Z 19007KT 10/01 A303 RMK A01 T00960007  RH  055%=      5-min Rain = 0
KMES 131925Z 14008KT 10/01 A3029 RMK A01 T00990006  RH  053%=      5-min Rain = 0
KMES 131930Z 15008G14KT 10/01 A3029 RMK A01 T01030005  RH  051%=      5-min Rain = 0
KMES 131935Z 15007G12KT 10/01 A3029 RMK A01 T01010005  RH  052%=      5-min Rain = 0
KMES 131940Z 15008KT 10/00 A3028 RMK A01 T01010004  RH  052%=      5-min Rain = 0
KMES 131945Z 14008G13KT 10/01 A3028 RMK A01 T01030005  RH  051%=      5-min Rain = 0
KMES 131950Z 14011KT 11/01 A3027 RMK A01 T01060006  RH  051%=      5-min Rain = 0
KMES 131955Z 13010G15KT 11/01 A3027 RMK A01 T01090007  RH  050%=      5-min Rain = 0
KMES 132000Z 14011KT 11/01 A3026 RMK A01 T01120009  RH  050%=      5-min Rain = 0
KMES 132005Z 16010G16KT 12/01 A3026 RMK A01 T01150014  RH  050%=      5-min Rain = 0
KMES 132010Z 16009G15KT 12/02 A3026 RMK A01 T01170017  RH  051%=      5-min Rain = 0
KMES 132015Z 17009KT 12/02 A3026 RMK A01 T01210016  RH  049%=      5-min Rain = 0
KMES 132020Z 20011G17KT 12/02 A3026 RMK A01 T01210016  RH  049%=      5-min Rain = 0
KMES 132025Z 21011KT 12/02 A3026 RMK A01 T01230015  RH  048%=      5-min Rain = 0
KMES 132030Z 20013KT 12/02 A3026 RMK A01 T01220015  RH  049%=      5-min Rain = 0
KMES 132035Z 21012KT 12/02 A3025 RMK A01 T01210015  RH  049%=      5-min Rain = 0
KMES 132040Z 20011G17KT 12/02 A3025 RMK A01 T01200015  RH  049%=      5-min Rain = 0
KMES 132045Z 21011KT 12/01 A3025 RMK A01 T01220014  RH  048%=      5-min Rain = 0
KMES 132050Z 21010G16KT 13/01 A3025 RMK A01 T01250013  RH  047%=      5-min Rain = 0
KMES 132055Z 21012G18KT 13/01 A3025 RMK A01 T01270013  RH  046%=      5-min Rain = 0
KMES 132100Z 21012G18KT 13/01 A3025 RMK A01 T01260013  RH  047%=      5-min Rain = 0
KMES 132105Z 22010KT 13/01 A3025 RMK A01 T01280013  RH  046%=      5-min Rain = 0
KMES 132110Z 21013G18KT 13/01 A3025 RMK A01 T01280012  RH  046%=      5-min Rain = 0
KMES 132115Z 21012G18KT 13/01 A3025 RMK A01 T01270012  RH  046%=      5-min Rain = 0
KMES 132120Z 20010KT 13/01 A3024 RMK A01 T01280012  RH  046%=      5-min Rain = 0
KMES 132125Z 20011KT 13/01 A3024 RMK A01 T01310009  RH  044%=      5-min Rain = 0
KMES 132130Z 19010KT 13/01 A3024 RMK A01 T01300008  RH  044%=      5-min Rain = 0
KMES 132135Z 19010G16KT 13/01 A3024 RMK A01 T01300008  RH  044%=      5-min Rain = 0
KMES 132140Z 19010KT 13/01 A3024 RMK A01 T01310008  RH  043%=      5-min Rain = 0
KMES 132145Z 20011KT 13/01 A3024 RMK A01 T01330007  RH  043%=      5-min Rain = 0
KMES 132150Z 19009KT 13/01 A3024 RMK A01 T01340008  RH  043%=      5-min Rain = 0
KMES 132155Z 18008KT 13/01 A3024 RMK A01 T01340007  RH  042%=      5-min Rain = 0
KMES 132200Z 18009KT 13/01 A3024 RMK A01 T01340006  RH  042%=      5-min Rain = 0
KMES 132205Z 17009G14KT 13/01 A3024 RMK A01 T01340007  RH  042%=      5-min Rain = 0
KMES 132210Z 18007KT 13/01 A3023 RMK A01 T01340007  RH  042%=      5-min Rain = 0
KMES 132215Z 17008G13KT 14/01 A3023 RMK A01 T01360008  RH  042%=      5-min Rain = 0
KMES 132220Z 18007KT 14/01 A3023 RMK A01 T01380007  RH  041%=      5-min Rain = 0
KMES 132225Z 19009KT 14/01 A3023 RMK A01 T01390010  RH  042%=      5-min Rain = 0
KMES 132230Z 20008KT 14/01 A3023 RMK A01 T01420011  RH  041%=      5-min Rain = 0
KMES 132235Z 19009KT 14/01 A3023 RMK A01 T01420011  RH  041%=      5-min Rain = 0
KMES 132240Z 19010KT 14/01 A3023 RMK A01 T01410013  RH  042%=      5-min Rain = 0
KMES 132245Z 17009KT 14/02 A3023 RMK A01 T01420015  RH  043%=      5-min Rain = 0
KMES 132250Z 16006G12KT 14/01 A3023 RMK A01 T01430014  RH  042%=      5-min Rain = 0
KMES 132255Z 17006KT 14/01 A3022 RMK A01 T01440014  RH  042%=      5-min Rain = 0
KMES 132300Z 19010G16KT 15/02 A3022 RMK A01 T01450018  RH  043%=      5-min Rain = 0
KMES 132305Z 18009G14KT 15/02 A3022 RMK A01 T01450019  RH  043%=      5-min Rain = 0
KMES 132310Z 17009KT 15/02 A3022 RMK A01 T01450018  RH  043%=      5-min Rain = 0
KMES 132315Z 15010KT 14/01 A3022 RMK A01 T01420013  RH  042%=      5-min Rain = 0
KMES 132320Z 15010KT 14/01 A3023 RMK A01 T01370013  RH  043%=      5-min Rain = 0
KMES 132325Z 14010KT 14/01 A3022 RMK A01 T01350013  RH  044%=      5-min Rain = 0
KMES 132330Z 13010KT 13/01 A3022 RMK A01 T01340013  RH  044%=      5-min Rain = 0
KMES 132335Z 14010KT 13/01 A3022 RMK A01 T01310014  RH  045%=      5-min Rain = 0
KMES 132340Z 14008KT 13/01 A3023 RMK A01 T01300014  RH  046%=      5-min Rain = 0
KMES 132345Z 14008KT 13/01 A3023 RMK A01 T01270013  RH  046%=      5-min Rain = 0
KMES 132350Z 14009KT 13/01 A3022 RMK A01 T01250013  RH  047%=      5-min Rain = 0
KMES 132355Z 14007KT 12/01 A3023 RMK A01 T01230013  RH  047%=      5-min Rain = 0
KMES 140000Z 14007KT 12/01 A3023 RMK A01 T01210012  RH  048%=      5-min Rain = 0
KMES 140005Z 14007KT 12/01 A3022 RMK A01 T01190012  RH  048%=      5-min Rain = 0
KMES 140010Z 14007KT 12/01 A3022 RMK A01 T01160011  RH  049%=      5-min Rain = 0
KMES 140015Z 14006KT 11/01 A3022 RMK A01 T01140011  RH  050%=      5-min Rain = 0
KMES 140020Z 14005KT 11/01 A3022 RMK A01 T01120010  RH  050%=      5-min Rain = 0
KMES 140025Z 14006KT 11/01 A3022 RMK A01 T01080008  RH  051%=      5-min Rain = 0
KMES 140030Z 14005KT 11/01 A3022 RMK A01 T01050008  RH  052%=      5-min Rain = 0
KMES 140035Z 14006KT 10/01 A3022 RMK A01 T01040009  RH  052%=      5-min Rain = 0
KMES 140040Z 14005KT 10/01 A3022 RMK A01 T01040009  RH  052%=      5-min Rain = 0
KMES 140045Z 14005KT 10/01 A3022 RMK A01 T01020008  RH  053%=      5-min Rain = 0
KMES 140050Z 14005KT 10/01 A3023 RMK A01 T00990008  RH  054%=      5-min Rain = 0
KMES 140055Z 14004KT 10/01 A3023 RMK A01 T00990008  RH  054%=      5-min Rain = 0
KMES 140100Z 14004KT 10/01 A3023 RMK A01 T00960006  RH  054%=      5-min Rain = 0
KMES 140105Z 14003KT 09/00 A3023 RMK A01 T00910003  RH  055%=      5-min Rain = 0
KMES 140110Z 14004KT 09/01 A3023 RMK A01 T00880005  RH  056%=      5-min Rain = 0
KMES 140115Z 14004KT 09/01 A3023 RMK A01 T00880005  RH  057%=      5-min Rain = 0
KMES 140120Z 13005KT 09/00 A3023 RMK A01 T00870004  RH  057%=      5-min Rain = 0
KMES 140125Z 14005KT 09/01 A3023 RMK A01 T00850005  RH  058%=      5-min Rain = 0
KMES 140130Z 15004KT 08/01 A3023 RMK A01 T00840006  RH  059%=      5-min Rain = 0
KMES 140135Z 15004KT 08/01 A3023 RMK A01 T00840005  RH  058%=      5-min Rain = 0
KMES 140140Z 15004KT 08/01 A3023 RMK A01 T00830005  RH  059%=      5-min Rain = 0
KMES 140145Z 13007KT 08/00 A3023 RMK A01 T00800002  RH  059%=      5-min Rain = 0
KMES 140150Z 14006KT 08/00 A3023 RMK A01 T00770003  RH  060%=      5-min Rain = 0
KMES 140155Z 15004KT 08/00 A3024 RMK A01 T00770002  RH  060%=      5-min Rain = 0
KMES 140200Z 15004KT 08/00 A3024 RMK A01 T00770003  RH  060%=      5-min Rain = 0
KMES 140205Z 15004KT 08/00 A3024 RMK A01 T00770002  RH  060%=      5-min Rain = 0
KMES 140210Z 15005KT 08/01 A3024 RMK A01 T00780006  RH  061%=      5-min Rain = 0
KMES 140215Z 15005KT 08/01 A3024 RMK A01 T00790005  RH  060%=      5-min Rain = 0
KMES 140220Z 15005KT 08/00 A3024 RMK A01 T00770003  RH  060%=      5-min Rain = 0
KMES 140225Z 14005KT 07/M00 A3024 RMK A01 T00741001  RH  060%=      5-min Rain = 0
KMES 140230Z 15004KT 07/M00 A3024 RMK A01 T00671002  RH  062%=      5-min Rain = 0
KMES 140235Z 14005KT 07/M00 A3024 RMK A01 T00651003  RH  062%=      5-min Rain = 0
KMES 140240Z 15004KT 06/00 A3024 RMK A01 T006400-0  RH  064%=      5-min Rain = 0
KMES 140245Z 15004KT 07/00 A3024 RMK A01 T00660002  RH  064%=      5-min Rain = 0
KMES 140250Z 15005KT 07/00 A3025 RMK A01 T00680003  RH  064%=      5-min Rain = 0
KMES 140255Z 15005KT 07/00 A3024 RMK A01 T00680004  RH  064%=      5-min Rain = 0
KMES 140300Z 15004KT 07/00 A3024 RMK A01 T00670004  RH  065%=      5-min Rain = 0
KMES 140305Z 15004KT 07/00 A3025 RMK A01 T00660003  RH  065%=      5-min Rain = 0
KMES 140310Z 14003KT 06/M00 A3025 RMK A01 T00621001  RH  065%=      5-min Rain = 0
KMES 140315Z 15005KT 06/00 A3025 RMK A01 T00600002  RH  067%=      5-min Rain = 0
KMES 140320Z 15006KT 06/01 A3025 RMK A01 T00630006  RH  068%=      5-min Rain = 0
KMES 140325Z 15006KT 06/01 A3024 RMK A01 T00640006  RH  067%=      5-min Rain = 0
KMES 140330Z 15007KT 06/01 A3024 RMK A01 T00630005  RH  067%=      5-min Rain = 0
KMES 140335Z 15006KT 06/01 A3024 RMK A01 T00610006  RH  069%=      5-min Rain = 0
KMES 140340Z 15006KT 06/01 A3024 RMK A01 T00620010  RH  070%=      5-min Rain = 0
KMES 140345Z 16006KT 07/01 A3024 RMK A01 T00650012  RH  070%=      5-min Rain = 0
KMES 140350Z 16006KT 07/01 A3024 RMK A01 T00660014  RH  070%=      5-min Rain = 0
KMES 140355Z 16007KT 07/02 A3024 RMK A01 T00670015  RH  071%=      5-min Rain = 0
KMES 140400Z 16006KT 07/02 A3024 RMK A01 T00670017  RH  071%=      5-min Rain = 0
KMES 140405Z 16006KT 07/02 A3024 RMK A01 T00660016  RH  071%=      5-min Rain = 0
KMES 140410Z 16005KT 07/02 A3024 RMK A01 T00650017  RH  072%=      5-min Rain = 0
KMES 140415Z 16004KT 06/02 A3024 RMK A01 T00640017  RH  072%=      5-min Rain = 0
KMES 140420Z 16003KT 06/02 A3024 RMK A01 T00630017  RH  073%=      5-min Rain = 0
KMES 140425Z 15003KT 06/02 A3024 RMK A01 T00630018  RH  074%=      5-min Rain = 0
KMES 140430Z 15002KT 06/02 A3024 RMK A01 T00620018  RH  074%=      5-min Rain = 0
KMES 140435Z 16003KT 06/02 A3024 RMK A01 T00610019  RH  075%=      5-min Rain = 0
KMES 140440Z 18003KT 06/02 A3024 RMK A01 T00610020  RH  076%=      5-min Rain = 0
KMES 140445Z 18003KT 06/02 A3024 RMK A01 T00590018  RH  076%=      5-min Rain = 0
KMES 140450Z 19003KT 06/02 A3024 RMK A01 T00580018  RH  076%=      5-min Rain = 0
KMES 140455Z 19002KT 06/02 A3024 RMK A01 T00570018  RH  077%=      5-min Rain = 0
KMES 140500Z 23001KT 06/02 A3024 RMK A01 T00560018  RH  077%=      5-min Rain = 0
KMES 140505Z 20002KT 06/02 A3024 RMK A01 T00560019  RH  078%=      5-min Rain = 0
KMES 140510Z 21002KT 06/02 A3024 RMK A01 T00570020  RH  078%=      5-min Rain = 0
KMES 140515Z 21001KT 06/02 A3023 RMK A01 T00560020  RH  078%=      5-min Rain = 0
KMES 140520Z 21000KT 06/02 A3023 RMK A01 T00560021  RH  079%=      5-min Rain = 0
KMES 140525Z 22001KT 06/02 A3023 RMK A01 T00570023  RH  080%=      5-min Rain = 0
KMES 140530Z 22002KT 06/02 A3023 RMK A01 T00570023  RH  080%=      5-min Rain = 0
KMES 140535Z 21003KT 06/03 A3023 RMK A01 T00580025  RH  080%=      5-min Rain = 0
KMES 140540Z 20003KT 05/02 A3023 RMK A01 T00540019  RH  079%=      5-min Rain = 0
KMES 140545Z 17003KT 05/02 A3023 RMK A01 T00520020  RH  081%=      5-min Rain = 0
KMES 140550Z 16001KT 05/02 A3023 RMK A01 T00520020  RH  081%=      5-min Rain = 0
KMES 140555Z 17001KT 05/02 A3022 RMK A01 T00510020  RH  081%=      5-min Rain = 0

Page generated in 0.0088 seconds.